sensor_id;sensor_type;location;lat;lon;timestamp;pressure;altitude;pressure_sealevel;temperature;humidity
48390;BME280;34643;47.964;7.982;2023-02-22T00:03:58;96601.66;;;15.02;58.24
48390;BME280;34643;47.964;7.982;2023-02-22T00:08:58;96601.66;;;15.02;58.04
48390;BME280;34643;47.964;7.982;2023-02-22T00:13:59;96605.94;;;15.04;58.16
48390;BME280;34643;47.964;7.982;2023-02-22T00:18:59;96592.22;;;15.01;57.99
48390;BME280;34643;47.964;7.982;2023-02-22T00:23:59;96587.03;;;15.01;58.08
48390;BME280;34643;47.964;7.982;2023-02-22T00:29:06;96587.94;;;15.00;57.87
48390;BME280;34643;47.964;7.982;2023-02-22T00:34:07;96586.31;;;14.99;58.10
48390;BME280;34643;47.964;7.982;2023-02-22T00:39:08;96585.44;;;14.99;58.11
48390;BME280;34643;47.964;7.982;2023-02-22T00:44:08;96578.59;;;14.98;58.21
48390;BME280;34643;47.964;7.982;2023-02-22T00:49:08;96579.44;;;14.98;58.05
48390;BME280;34643;47.964;7.982;2023-02-22T00:54:09;96571.72;;;14.97;57.92
48390;BME280;34643;47.964;7.982;2023-02-22T00:59:09;96574.34;;;14.97;58.23
48390;BME280;34643;47.964;7.982;2023-02-22T01:04:10;96570.09;;;14.96;58.12
48390;BME280;34643;47.964;7.982;2023-02-22T01:09:12;96570.09;;;14.96;58.07
48390;BME280;34643;47.964;7.982;2023-02-22T01:14:14;96562.38;;;14.94;58.02
48390;BME280;34643;47.964;7.982;2023-02-22T01:19:15;96552.00;;;14.94;57.97
48390;BME280;34643;47.964;7.982;2023-02-22T01:24:16;96557.19;;;14.94;58.14
48390;BME280;34643;47.964;7.982;2023-02-22T01:29:16;96545.13;;;14.93;58.03
48390;BME280;34643;47.964;7.982;2023-02-22T01:34:18;96541.78;;;14.91;57.96
48390;BME280;34643;47.964;7.982;2023-02-22T01:39:18;96544.41;;;14.91;58.03
48390;BME280;34643;47.964;7.982;2023-02-22T01:49:27;96526.31;;;14.90;57.89
48390;BME280;34643;47.964;7.982;2023-02-22T01:54:32;96528.09;;;14.89;57.88
48390;BME280;34643;47.964;7.982;2023-02-22T01:59:37;96525.47;;;14.89;57.92
48390;BME280;34643;47.964;7.982;2023-02-22T02:04:39;96521.22;;;14.88;57.98
48390;BME280;34643;47.964;7.982;2023-02-22T02:09:52;96520.38;;;14.88;57.90
48390;BME280;34643;47.964;7.982;2023-02-22T02:35:49;96500.63;;;14.85;57.90
48390;BME280;34643;47.964;7.982;2023-02-22T02:41:00;96496.38;;;14.84;58.01
48390;BME280;34643;47.964;7.982;2023-02-22T02:51:20;96493.06;;;14.82;57.89
48390;BME280;34643;47.964;7.982;2023-02-22T02:56:21;96491.38;;;14.81;57.90
48390;BME280;34643;47.964;7.982;2023-02-22T03:01:36;96489.59;;;14.81;58.19
48390;BME280;34643;47.964;7.982;2023-02-22T03:07:27;96486.28;;;14.79;58.34
48390;BME280;34643;47.964;7.982;2023-02-22T03:17:22;96485.47;;;14.79;58.01
48390;BME280;34643;47.964;7.982;2023-02-22T03:22:27;96482.88;;;14.79;57.82
48390;BME280;34643;47.964;7.982;2023-02-22T03:27:36;96489.00;;;14.78;57.83
48390;BME280;34643;47.964;7.982;2023-02-22T03:32:43;96485.66;;;14.76;57.78
48390;BME280;34643;47.964;7.982;2023-02-22T03:37:47;96479.66;;;14.75;58.04
48390;BME280;34643;47.964;7.982;2023-02-22T03:42:49;96481.44;;;14.75;57.84
48390;BME280;34643;47.964;7.982;2023-02-22T03:47:50;96478.81;;;14.75;57.95
48390;BME280;34643;47.964;7.982;2023-02-22T03:52:52;96486.72;;;14.73;58.05
48390;BME280;34643;47.964;7.982;2023-02-22T03:57:59;96478.09;;;14.73;57.88
48390;BME280;34643;47.964;7.982;2023-02-22T04:03:03;96479.84;;;14.72;57.73
48390;BME280;34643;47.964;7.982;2023-02-22T04:08:04;96479.03;;;14.72;57.73
48390;BME280;34643;47.964;7.982;2023-02-22T04:13:05;96472.16;;;14.71;57.98
48390;BME280;34643;47.964;7.982;2023-02-22T04:18:08;96473.94;;;14.70;57.88
48390;BME280;34643;47.964;7.982;2023-02-22T04:23:09;96474.03;;;14.69;57.76
48390;BME280;34643;47.964;7.982;2023-02-22T04:28:12;96469.69;;;14.69;57.91
48390;BME280;34643;47.964;7.982;2023-02-22T04:33:27;96462.00;;;14.68;57.77
48390;BME280;34643;47.964;7.982;2023-02-22T04:38:27;96467.19;;;14.68;57.79
48390;BME280;34643;47.964;7.982;2023-02-22T04:43:29;96455.94;;;14.67;57.83
48390;BME280;34643;47.964;7.982;2023-02-22T04:48:38;96453.44;;;14.66;57.84
48390;BME280;34643;47.964;7.982;2023-02-22T04:53:38;96446.63;;;14.64;57.89
48390;BME280;34643;47.964;7.982;2023-02-22T04:58:39;96446.63;;;14.64;57.88
48390;BME280;34643;47.964;7.982;2023-02-22T05:03:39;96451.81;;;14.64;57.92
48390;BME280;34643;47.964;7.982;2023-02-22T05:08:39;96441.53;;;14.63;57.83
48390;BME280;34643;47.964;7.982;2023-02-22T05:13:39;96441.63;;;14.61;57.82
48390;BME280;34643;47.964;7.982;2023-02-22T05:18:41;96437.38;;;14.60;57.90
48390;BME280;34643;47.964;7.982;2023-02-22T05:23:41;96434.78;;;14.60;57.89
48390;BME280;34643;47.964;7.982;2023-02-22T05:28:42;96432.06;;;14.62;57.77
48390;BME280;34643;47.964;7.982;2023-02-22T05:33:42;96430.50;;;14.59;57.61
48390;BME280;34643;47.964;7.982;2023-02-22T05:38:42;96423.63;;;14.58;57.79
48390;BME280;34643;47.964;7.982;2023-02-22T05:43:44;96426.34;;;14.57;57.78
48390;BME280;34643;47.964;7.982;2023-02-22T05:48:45;96422.88;;;14.56;57.81
48390;BME280;34643;47.964;7.982;2023-02-22T05:53:45;96422.06;;;14.56;57.66
48390;BME280;34643;47.964;7.982;2023-02-22T05:58:45;96420.38;;;14.55;57.88
48390;BME280;34643;47.964;7.982;2023-02-22T06:03:46;96418.75;;;14.54;57.64
48390;BME280;34643;47.964;7.982;2023-02-22T06:08:47;96418.03;;;14.52;57.61
48390;BME280;34643;47.964;7.982;2023-02-22T06:13:48;96428.41;;;14.52;57.45
48390;BME280;34643;47.964;7.982;2023-02-22T06:18:51;96428.50;;;14.50;57.72
48390;BME280;34643;47.964;7.982;2023-02-22T06:23:51;96431.13;;;14.50;57.75
48390;BME280;34643;47.964;7.982;2023-02-22T06:28:52;96433.81;;;14.49;57.52
48390;BME280;34643;47.964;7.982;2023-02-22T06:33:52;96433.00;;;14.48;57.55
48390;BME280;34643;47.964;7.982;2023-02-22T06:38:52;96435.59;;;14.48;57.67
48390;BME280;34643;47.964;7.982;2023-02-22T06:43:52;96446.91;;;14.47;57.56
48390;BME280;34643;47.964;7.982;2023-02-22T06:48:53;96446.91;;;14.47;57.51
48390;BME280;34643;47.964;7.982;2023-02-22T06:53:53;96443.47;;;14.47;57.43
48390;BME280;34643;47.964;7.982;2023-02-22T06:58:54;96447.84;;;14.46;57.62
48390;BME280;34643;47.964;7.982;2023-02-22T07:03:54;96451.38;;;14.45;57.89
48390;BME280;34643;47.964;7.982;2023-02-22T07:08:55;96453.97;;;14.45;57.46
48390;BME280;34643;47.964;7.982;2023-02-22T07:13:55;96455.75;;;14.44;57.66
48390;BME280;34643;47.964;7.982;2023-02-22T07:18:55;96452.28;;;14.44;57.63
48390;BME280;34643;47.964;7.982;2023-02-22T07:23:56;96458.44;;;14.43;57.57
48390;BME280;34643;47.964;7.982;2023-02-22T07:28:57;96459.25;;;14.43;57.49
48390;BME280;34643;47.964;7.982;2023-02-22T07:33:58;96460.94;;;14.44;57.67
48390;BME280;34643;47.964;7.982;2023-02-22T07:38:58;96460.84;;;14.46;57.54
48390;BME280;34643;47.964;7.982;2023-02-22T07:43:58;96458.97;;;14.48;57.63
48390;BME280;34643;47.964;7.982;2023-02-22T07:48:59;96458.00;;;14.49;57.35
48390;BME280;34643;47.964;7.982;2023-02-22T07:53:59;96459.69;;;14.50;57.39
48390;BME280;34643;47.964;7.982;2023-02-22T07:58:59;96469.25;;;14.50;57.48
48390;BME280;34643;47.964;7.982;2023-02-22T08:04:00;96462.28;;;14.50;57.66
48390;BME280;34643;47.964;7.982;2023-02-22T08:09:00;96465.59;;;14.52;57.48
48390;BME280;34643;47.964;7.982;2023-02-22T08:14:01;96463.81;;;14.53;57.41
48390;BME280;34643;47.964;7.982;2023-02-22T08:19:01;96457.72;;;14.54;57.42
48390;BME280;34643;47.964;7.982;2023-02-22T08:24:01;96445.53;;;14.54;57.41
48390;BME280;34643;47.964;7.982;2023-02-22T08:29:02;96440.16;;;14.57;57.60
48390;BME280;34643;47.964;7.982;2023-02-22T08:34:02;96442.69;;;14.59;57.46
48390;BME280;34643;47.964;7.982;2023-02-22T08:39:02;96439.97;;;14.60;57.63
48390;BME280;34643;47.964;7.982;2023-02-22T08:44:02;96431.22;;;14.61;57.40
48390;BME280;34643;47.964;7.982;2023-02-22T08:49:03;96438.00;;;14.64;57.71
48390;BME280;34643;47.964;7.982;2023-02-22T08:54:03;96439.75;;;14.63;57.48
48390;BME280;34643;47.964;7.982;2023-02-22T08:59:05;96435.28;;;14.66;57.52
48390;BME280;34643;47.964;7.982;2023-02-22T09:04:06;96442.97;;;14.67;57.36
48390;BME280;34643;47.964;7.982;2023-02-22T09:09:06;96440.38;;;14.67;57.52
48390;BME280;34643;47.964;7.982;2023-02-22T09:14:06;96442.03;;;14.68;57.39
48390;BME280;34643;47.964;7.982;2023-02-22T09:19:07;96440.25;;;14.69;57.52
48390;BME280;34643;47.964;7.982;2023-02-22T09:24:07;96439.34;;;14.70;57.64
48390;BME280;34643;47.964;7.982;2023-02-22T09:29:08;96440.06;;;14.72;57.64
48390;BME280;34643;47.964;7.982;2023-02-22T09:34:08;96441.72;;;14.73;57.49
48390;BME280;34643;47.964;7.982;2023-02-22T09:39:13;96440.78;;;14.74;57.58
48390;BME280;34643;47.964;7.982;2023-02-22T09:54:37;96435.19;;;14.80;57.44
48390;BME280;34643;47.964;7.982;2023-02-22T09:59:39;96430.69;;;14.82;57.48
48390;BME280;34643;47.964;7.982;2023-02-22T10:04:51;96432.44;;;14.81;57.69
48390;BME280;34643;47.964;7.982;2023-02-22T10:09:53;96427.16;;;14.83;57.63
48390;BME280;34643;47.964;7.982;2023-02-22T10:20:28;96416.84;;;14.81;57.92
48390;BME280;34643;47.964;7.982;2023-02-22T10:25:36;96425.41;;;14.83;57.63
48390;BME280;34643;47.964;7.982;2023-02-22T10:30:41;96417.72;;;14.82;57.87
48390;BME280;34643;47.964;7.982;2023-02-22T10:35:43;96417.81;;;14.80;57.68
48390;BME280;34643;47.964;7.982;2023-02-22T10:46:03;96411.91;;;14.78;57.90
48390;BME280;34643;47.964;7.982;2023-02-22T10:51:06;96408.13;;;14.82;57.70
48390;BME280;34643;47.964;7.982;2023-02-22T11:06:27;96391.97;;;15.03;57.65
48390;BME280;34643;47.964;7.982;2023-02-22T11:11:28;96390.00;;;15.07;57.75
48390;BME280;34643;47.964;7.982;2023-02-22T11:21:29;96383.53;;;15.12;57.79
48390;BME280;34643;47.964;7.982;2023-02-22T11:26:35;96381.31;;;15.19;57.87
48390;BME280;34643;47.964;7.982;2023-02-22T11:31:40;96377.88;;;15.18;57.70
48390;BME280;34643;47.964;7.982;2023-02-22T11:36:41;96370.94;;;15.19;58.00
48390;BME280;34643;47.964;7.982;2023-02-22T11:41:42;96365.84;;;15.17;58.01
48390;BME280;34643;47.964;7.982;2023-02-22T11:46:42;96357.06;;;15.18;58.01
48390;BME280;34643;47.964;7.982;2023-02-22T11:56:49;96352.28;;;15.25;58.00
48390;BME280;34643;47.964;7.982;2023-02-22T12:17:35;96335.56;;;15.40;58.17
48390;BME280;34643;47.964;7.982;2023-02-22T12:22:43;96338.41;;;15.49;57.87
48390;BME280;34643;47.964;7.982;2023-02-22T12:28:29;96336.50;;;15.51;57.89
48390;BME280;34643;47.964;7.982;2023-02-22T12:33:15;96349.66;;;15.49;58.01
48390;BME280;34643;47.964;7.982;2023-02-22T12:38:20;96346.09;;;15.50;58.14
48390;BME280;34643;47.964;7.982;2023-02-22T12:43:31;96345.28;;;15.50;58.08
48390;BME280;34643;47.964;7.982;2023-02-22T12:53:34;96349.41;;;15.52;58.12
48390;BME280;34643;47.964;7.982;2023-02-22T13:03:58;96345.06;;;15.53;58.10
48390;BME280;34643;47.964;7.982;2023-02-22T13:24:49;96348.75;;;15.62;57.94
48390;BME280;34643;47.964;7.982;2023-02-22T13:29:56;96350.41;;;15.63;57.77
48390;BME280;34643;47.964;7.982;2023-02-22T13:45:37;96345.56;;;15.58;57.89
48390;BME280;34643;47.964;7.982;2023-02-22T13:55:53;96355.81;;;15.59;57.93
48390;BME280;34643;47.964;7.982;2023-02-22T14:00:56;96353.22;;;15.59;57.98
48390;BME280;34643;47.964;7.982;2023-02-22T14:05:57;96355.00;;;15.59;57.99
48390;BME280;34643;47.964;7.982;2023-02-22T14:11:00;96353.22;;;15.59;57.98
48390;BME280;34643;47.964;7.982;2023-02-22T14:31:15;96346.59;;;15.55;57.81
48390;BME280;34643;47.964;7.982;2023-02-22T14:36:16;96344.91;;;15.54;57.90
48390;BME280;34643;47.964;7.982;2023-02-22T14:41:17;96351.09;;;15.53;57.80
48390;BME280;34643;47.964;7.982;2023-02-22T14:46:20;96350.88;;;15.56;57.84
48390;BME280;34643;47.964;7.982;2023-02-22T14:51:41;96355.56;;;15.51;57.79
48390;BME280;34643;47.964;7.982;2023-02-22T15:02:06;96349.78;;;15.48;57.88
48390;BME280;34643;47.964;7.982;2023-02-22T15:07:20;96355.69;;;15.50;57.79
48390;BME280;34643;47.964;7.982;2023-02-22T15:12:26;96361.09;;;15.47;57.85
48390;BME280;34643;47.964;7.982;2023-02-22T15:17:28;96351.66;;;15.46;57.75
48390;BME280;34643;47.964;7.982;2023-02-22T15:22:31;96353.50;;;15.44;57.95
48390;BME280;34643;47.964;7.982;2023-02-22T15:27:34;96356.38;;;15.40;58.00
48390;BME280;34643;47.964;7.982;2023-02-22T15:32:39;96358.97;;;15.40;57.95
48390;BME280;34643;47.964;7.982;2023-02-22T15:37:39;96355.50;;;15.40;57.83
48390;BME280;34643;47.964;7.982;2023-02-22T15:42:44;96363.44;;;15.38;57.88
48390;BME280;34643;47.964;7.982;2023-02-22T15:47:45;96364.38;;;15.37;57.78
48390;BME280;34643;47.964;7.982;2023-02-22T15:52:53;96363.66;;;15.35;57.85
48390;BME280;34643;47.964;7.982;2023-02-22T15:57:58;96367.19;;;15.34;57.89
48390;BME280;34643;47.964;7.982;2023-02-22T16:03:01;96369.09;;;15.32;57.88
48390;BME280;34643;47.964;7.982;2023-02-22T16:08:02;96373.47;;;15.32;57.80
48390;BME280;34643;47.964;7.982;2023-02-22T16:13:04;96381.25;;;15.32;57.75
48390;BME280;34643;47.964;7.982;2023-02-22T16:18:22;96389.28;;;15.29;57.94
48390;BME280;34643;47.964;7.982;2023-02-22T16:23:24;96382.53;;;15.26;57.85
48390;BME280;34643;47.964;7.982;2023-02-22T16:28:26;96390.34;;;15.26;58.00
48390;BME280;34643;47.964;7.982;2023-02-22T16:33:29;96392.19;;;15.24;57.81
48390;BME280;34643;47.964;7.982;2023-02-22T16:38:32;96392.19;;;15.24;57.97
48390;BME280;34643;47.964;7.982;2023-02-22T16:43:34;96395.75;;;15.23;57.85
48390;BME280;34643;47.964;7.982;2023-02-22T16:48:34;96393.25;;;15.21;57.85
48390;BME280;34643;47.964;7.982;2023-02-22T16:53:38;96388.66;;;15.25;57.69
48390;BME280;34643;47.964;7.982;2023-02-22T16:58:38;96398.84;;;15.28;57.64
48390;BME280;34643;47.964;7.982;2023-02-22T17:03:39;96399.56;;;15.30;57.67
48390;BME280;34643;47.964;7.982;2023-02-22T17:08:40;96397.78;;;15.31;57.66
48390;BME280;34643;47.964;7.982;2023-02-22T17:13:41;96399.34;;;15.33;57.65
48390;BME280;34643;47.964;7.982;2023-02-22T17:18:41;96401.97;;;15.33;57.72
48390;BME280;34643;47.964;7.982;2023-02-22T17:23:41;96407.25;;;15.32;57.61
48390;BME280;34643;47.964;7.982;2023-02-22T17:28:44;96413.41;;;15.31;57.72
48390;BME280;34643;47.964;7.982;2023-02-22T17:33:45;96409.88;;;15.32;57.66
48390;BME280;34643;47.964;7.982;2023-02-22T17:38:45;96422.16;;;15.30;57.82
48390;BME280;34643;47.964;7.982;2023-02-22T17:43:45;96420.47;;;15.29;57.69
48390;BME280;34643;47.964;7.982;2023-02-22T17:48:45;96422.97;;;15.30;57.81
48390;BME280;34643;47.964;7.982;2023-02-22T17:53:49;96433.38;;;15.30;57.59
48390;BME280;34643;47.964;7.982;2023-02-22T17:58:51;96427.34;;;15.30;57.75
48390;BME280;34643;47.964;7.982;2023-02-22T18:03:56;96425.38;;;15.33;57.74
48390;BME280;34643;47.964;7.982;2023-02-22T18:08:57;96426.59;;;15.40;57.84
48390;BME280;34643;47.964;7.982;2023-02-22T18:13:58;96425.41;;;15.45;57.87
48390;BME280;34643;47.964;7.982;2023-02-22T18:18:58;96429.72;;;15.57;58.39
48390;BME280;34643;47.964;7.982;2023-02-22T18:24:00;96428.19;;;15.78;58.81
48390;BME280;34643;47.964;7.982;2023-02-22T18:29:01;96426.09;;;15.84;59.86
48390;BME280;34643;47.964;7.982;2023-02-22T18:34:01;96428.47;;;15.87;60.49
48390;BME280;34643;47.964;7.982;2023-02-22T18:39:01;96423.47;;;15.84;60.56
48390;BME280;34643;47.964;7.982;2023-02-22T18:44:03;96418.56;;;15.92;61.65
48390;BME280;34643;47.964;7.982;2023-02-22T18:49:04;96418.69;;;16.02;61.28
48390;BME280;34643;47.964;7.982;2023-02-22T18:54:04;96419.28;;;16.05;61.48
48390;BME280;34643;47.964;7.982;2023-02-22T18:59:05;96415.97;;;16.03;61.18
48390;BME280;34643;47.964;7.982;2023-02-22T19:04:07;96419.28;;;16.05;61.36
48390;BME280;34643;47.964;7.982;2023-02-22T19:09:08;96414.56;;;16.10;61.25
48390;BME280;34643;47.964;7.982;2023-02-22T19:14:10;96403.22;;;16.11;61.28
48390;BME280;34643;47.964;7.982;2023-02-22T19:19:11;96411.25;;;16.08;61.41
48390;BME280;34643;47.964;7.982;2023-02-22T19:24:12;96412.66;;;16.01;61.69
48390;BME280;34643;47.964;7.982;2023-02-22T19:29:12;96415.38;;;16.00;61.76
48390;BME280;34643;47.964;7.982;2023-02-22T19:34:12;96411.09;;;15.99;61.59
48390;BME280;34643;47.964;7.982;2023-02-22T19:39:15;96415.47;;;15.98;61.59
48390;BME280;34643;47.964;7.982;2023-02-22T19:44:16;96415.38;;;16.00;61.50
48390;BME280;34643;47.964;7.982;2023-02-22T19:49:16;96415.38;;;16.00;61.66
48390;BME280;34643;47.964;7.982;2023-02-22T19:54:16;96420.47;;;16.01;61.61
48390;BME280;34643;47.964;7.982;2023-02-22T19:59:20;96417.88;;;16.01;61.70
48390;BME280;34643;47.964;7.982;2023-02-22T20:04:22;96420.47;;;16.01;61.85
48390;BME280;34643;47.964;7.982;2023-02-22T20:09:23;96419.50;;;16.02;61.87
48390;BME280;34643;47.964;7.982;2023-02-22T20:14:28;96420.38;;;16.14;62.01
48390;BME280;34643;47.964;7.982;2023-02-22T20:19:29;96425.09;;;16.09;61.79
48390;BME280;34643;47.964;7.982;2023-02-22T20:24:29;96423.44;;;16.08;62.05
48390;BME280;34643;47.964;7.982;2023-02-22T20:29:30;96427.69;;;16.09;61.94
48390;BME280;34643;47.964;7.982;2023-02-22T20:34:30;96431.97;;;16.10;61.98
48390;BME280;34643;47.964;7.982;2023-02-22T20:39:32;96418.00;;;16.11;62.08
48390;BME280;34643;47.964;7.982;2023-02-22T20:44:32;96426.66;;;16.11;61.97
48390;BME280;34643;47.964;7.982;2023-02-22T20:49:32;96424.75;;;16.13;61.98
48390;BME280;34643;47.964;7.982;2023-02-22T20:54:33;96426.97;;;16.07;61.98
48390;BME280;34643;47.964;7.982;2023-02-22T20:59:37;96424.50;;;16.05;61.98
48390;BME280;34643;47.964;7.982;2023-02-22T21:04:37;96423.66;;;16.05;62.12
48390;BME280;34643;47.964;7.982;2023-02-22T21:09:37;96433.25;;;16.04;61.82
48390;BME280;34643;47.964;7.982;2023-02-22T21:14:38;96428.06;;;16.04;61.85
48390;BME280;34643;47.964;7.982;2023-02-22T21:19:38;96424.59;;;16.04;61.84
48390;BME280;34643;47.964;7.982;2023-02-22T21:24:39;96432.28;;;16.05;61.74
48390;BME280;34643;47.964;7.982;2023-02-22T21:29:39;96422.84;;;16.04;61.59
48390;BME280;34643;47.964;7.982;2023-02-22T21:34:39;96419.28;;;16.05;61.53
48390;BME280;34643;47.964;7.982;2023-02-22T21:39:40;96424.50;;;16.05;61.50
48390;BME280;34643;47.964;7.982;2023-02-22T21:44:40;96430.50;;;16.06;61.48
48390;BME280;34643;47.964;7.982;2023-02-22T21:49:41;96416.78;;;16.04;61.37
48390;BME280;34643;47.964;7.982;2023-02-22T21:54:41;96421.06;;;16.05;61.29
48390;BME280;34643;47.964;7.982;2023-02-22T21:59:41;96413.25;;;16.05;61.27
48390;BME280;34643;47.964;7.982;2023-02-22T22:04:42;96413.38;;;16.03;61.30
48390;BME280;34643;47.964;7.982;2023-02-22T22:09:42;96413.38;;;16.03;61.30
48390;BME280;34643;47.964;7.982;2023-02-22T22:14:43;96410.75;;;16.03;61.19
48390;BME280;34643;47.964;7.982;2023-02-22T22:19:43;96407.34;;;16.03;60.99
48390;BME280;34643;47.964;7.982;2023-02-22T22:24:45;96405.66;;;16.02;61.17
48390;BME280;34643;47.964;7.982;2023-02-22T22:29:47;96403.06;;;16.02;61.15
48390;BME280;34643;47.964;7.982;2023-02-22T22:34:48;96406.63;;;16.01;61.09
48390;BME280;34643;47.964;7.982;2023-02-22T22:39:48;96403.19;;;16.00;61.02
48390;BME280;34643;47.964;7.982;2023-02-22T22:44:48;96402.34;;;16.00;61.01
48390;BME280;34643;47.964;7.982;2023-02-22T22:49:49;96401.53;;;15.99;61.03
48390;BME280;34643;47.964;7.982;2023-02-22T22:54:49;96396.44;;;15.98;61.05
48390;BME280;34643;47.964;7.982;2023-02-22T22:59:49;96395.59;;;15.97;61.03
48390;BME280;34643;47.964;7.982;2023-02-22T23:04:50;96394.75;;;15.96;61.20
48390;BME280;34643;47.964;7.982;2023-02-22T23:09:50;96391.44;;;15.94;61.08
48390;BME280;34643;47.964;7.982;2023-02-22T23:14:51;96386.25;;;15.94;61.05
48390;BME280;34643;47.964;7.982;2023-02-22T23:19:51;96395.84;;;15.94;60.88
48390;BME280;34643;47.964;7.982;2023-02-22T23:24:51;96389.91;;;15.92;61.04
48390;BME280;34643;47.964;7.982;2023-02-22T23:29:53;96384.72;;;15.92;60.80
48390;BME280;34643;47.964;7.982;2023-02-22T23:34:54;96384.72;;;15.92;60.86
48390;BME280;34643;47.964;7.982;2023-02-22T23:39:54;96392.53;;;15.92;60.67
48390;BME280;34643;47.964;7.982;2023-02-22T23:44:54;96390.84;;;15.91;60.91
48390;BME280;34643;47.964;7.982;2023-02-22T23:49:56;96395.94;;;15.92;60.84
48390;BME280;34643;47.964;7.982;2023-02-22T23:54:57;96388.25;;;15.91;60.71
